sensor_id;sensor_type;location;lat;lon;timestamp;pressure;altitude;pressure_sealevel;temperature;humidity
64862;BME280;62652;42.274;-71.436;2023-01-31T00:00:01;101100.0;;;5.38888888888889;100.0
64862;BME280;62652;42.274;-71.436;2023-01-31T00:01:07;101100.0;;;5.38888888888889;100.0
64862;BME280;62652;42.274;-71.436;2023-01-31T00:02:00;101110.0;;;5.38888888888889;100.0
64862;BME280;62652;42.274;-71.436;2023-01-31T00:03:00;101110.0;;;5.38888888888889;100.0
64862;BME280;62652;42.274;-71.436;2023-01-31T00:04:04;101100.0;;;5.38888888888889;100.0
64862;BME280;62652;42.274;-71.436;2023-01-31T00:05:00;101100.0;;;5.277777777777778;100.0
64862;BME280;62652;42.274;-71.436;2023-01-31T00:06:14;101100.0;;;5.277777777777778;100.0
64862;BME280;62652;42.274;-71.436;2023-01-31T00:07:00;101100.0;;;5.277777777777778;100.0
64862;BME280;62652;42.274;-71.436;2023-01-31T00:08:00;101110.0;;;5.277777777777778;100.0
64862;BME280;62652;42.274;-71.436;2023-01-31T00:09:02;101110.0;;;5.222222222222221;100.0
64862;BME280;62652;42.274;-71.436;2023-01-31T00:10:01;101110.0;;;5.222222222222221;100.0
64862;BME280;62652;42.274;-71.436;2023-01-31T00:11:01;101110.0;;;5.222222222222221;100.0
64862;BME280;62652;42.274;-71.436;2023-01-31T00:12:01;101110.0;;;5.222222222222221;100.0
64862;BME280;62652;42.274;-71.436;2023-01-31T00:13:01;101110.0;;;5.222222222222221;100.0
64862;BME280;62652;42.274;-71.436;2023-01-31T00:14:03;101110.0;;;5.222222222222221;100.0
64862;BME280;62652;42.274;-71.436;2023-01-31T00:15:01;101110.0;;;5.1111111111111125;100.0
64862;BME280;62652;42.274;-71.436;2023-01-31T00:16:01;101120.0;;;5.222222222222221;100.0
64862;BME280;62652;42.274;-71.436;2023-01-31T00:17:00;101120.0;;;5.222222222222221;100.0
64862;BME280;62652;42.274;-71.436;2023-01-31T00:18:00;101120.0;;;5.222222222222221;100.0
64862;BME280;62652;42.274;-71.436;2023-01-31T00:19:01;101120.0;;;5.1111111111111125;100.0
64862;BME280;62652;42.274;-71.436;2023-01-31T00:20:01;101120.0;;;5.1111111111111125;100.0
64862;BME280;62652;42.274;-71.436;2023-01-31T00:21:06;101110.0;;;5.1111111111111125;100.0
64862;BME280;62652;42.274;-71.436;2023-01-31T00:22:00;101120.0;;;5.1111111111111125;100.0
64862;BME280;62652;42.274;-71.436;2023-01-31T00:23:01;101120.0;;;5.1111111111111125;100.0
64862;BME280;62652;42.274;-71.436;2023-01-31T00:24:01;101110.0;;;5.0;100.0
64862;BME280;62652;42.274;-71.436;2023-01-31T00:25:00;101110.0;;;4.8888888888888875;100.0
64862;BME280;62652;42.274;-71.436;2023-01-31T00:26:09;101110.0;;;4.8888888888888875;100.0
64862;BME280;62652;42.274;-71.436;2023-01-31T00:27:00;101110.0;;;4.8888888888888875;100.0
64862;BME280;62652;42.274;-71.436;2023-01-31T00:28:00;101110.0;;;4.777777777777779;100.0
64862;BME280;62652;42.274;-71.436;2023-01-31T00:29:03;101110.0;;;4.777777777777779;100.0
64862;BME280;62652;42.274;-71.436;2023-01-31T00:30:01;101110.0;;;4.722222222222222;100.0
64862;BME280;62652;42.274;-71.436;2023-01-31T00:31:01;101120.0;;;4.722222222222222;100.0
64862;BME280;62652;42.274;-71.436;2023-01-31T00:32:01;101120.0;;;4.61111111111111;100.0
64862;BME280;62652;42.274;-71.436;2023-01-31T00:33:01;101120.0;;;4.722222222222222;100.0
64862;BME280;62652;42.274;-71.436;2023-01-31T00:34:02;101130.0;;;4.61111111111111;100.0
64862;BME280;62652;42.274;-71.436;2023-01-31T00:35:00;101130.0;;;4.61111111111111;100.0
64862;BME280;62652;42.274;-71.436;2023-01-31T00:36:02;101140.0;;;4.61111111111111;100.0
64862;BME280;62652;42.274;-71.436;2023-01-31T00:37:00;101140.0;;;4.500000000000001;100.0
64862;BME280;62652;42.274;-71.436;2023-01-31T00:38:00;101140.0;;;4.500000000000001;100.0
64862;BME280;62652;42.274;-71.436;2023-01-31T00:39:02;101150.0;;;4.500000000000001;100.0
64862;BME280;62652;42.274;-71.436;2023-01-31T00:40:00;101150.0;;;4.500000000000001;100.0
64862;BME280;62652;42.274;-71.436;2023-01-31T00:41:02;101140.0;;;4.388888888888888;100.0
64862;BME280;62652;42.274;-71.436;2023-01-31T00:42:00;101140.0;;;4.388888888888888;100.0
64862;BME280;62652;42.274;-71.436;2023-01-31T00:43:01;101130.0;;;4.388888888888888;100.0
64862;BME280;62652;42.274;-71.436;2023-01-31T00:44:01;101130.0;;;4.2777777777777795;100.0
64862;BME280;62652;42.274;-71.436;2023-01-31T00:45:01;101130.0;;;4.2777777777777795;100.0
64862;BME280;62652;42.274;-71.436;2023-01-31T00:46:01;101130.0;;;4.222222222222223;100.0
64862;BME280;62652;42.274;-71.436;2023-01-31T00:47:01;101140.0;;;4.222222222222223;100.0
64862;BME280;62652;42.274;-71.436;2023-01-31T00:48:01;101130.0;;;4.111111111111111;100.0
64862;BME280;62652;42.274;-71.436;2023-01-31T00:49:00;101130.0;;;4.111111111111111;100.0
64862;BME280;62652;42.274;-71.436;2023-01-31T00:50:01;101130.0;;;4.111111111111111;100.0
64862;BME280;62652;42.274;-71.436;2023-01-31T00:51:01;101120.0;;;4.111111111111111;100.0
64862;BME280;62652;42.274;-71.436;2023-01-31T00:52:00;101110.0;;;4.000000000000002;100.0
64862;BME280;62652;42.274;-71.436;2023-01-31T00:53:00;101110.0;;;4.111111111111111;100.0
64862;BME280;62652;42.274;-71.436;2023-01-31T00:54:00;101110.0;;;4.111111111111111;100.0
64862;BME280;62652;42.274;-71.436;2023-01-31T00:55:00;101110.0;;;4.111111111111111;100.0
64862;BME280;62652;42.274;-71.436;2023-01-31T00:56:03;101110.0;;;4.111111111111111;100.0
64862;BME280;62652;42.274;-71.436;2023-01-31T00:57:01;101110.0;;;4.222222222222223;100.0
64862;BME280;62652;42.274;-71.436;2023-01-31T00:58:01;101110.0;;;4.222222222222223;100.0
64862;BME280;62652;42.274;-71.436;2023-01-31T00:59:00;101110.0;;;4.222222222222223;100.0
64862;BME280;62652;42.274;-71.436;2023-01-31T01:00:00;101100.0;;;4.2777777777777795;100.0
64862;BME280;62652;42.274;-71.436;2023-01-31T01:01:11;101100.0;;;4.2777777777777795;100.0
64862;BME280;62652;42.274;-71.436;2023-01-31T01:02:00;101110.0;;;4.2777777777777795;100.0
64862;BME280;62652;42.274;-71.436;2023-01-31T01:03:01;101110.0;;;4.2777777777777795;100.0
64862;BME280;62652;42.274;-71.436;2023-01-31T01:04:02;101110.0;;;4.2777777777777795;100.0
64862;BME280;62652;42.274;-71.436;2023-01-31T01:05:00;101100.0;;;4.2777777777777795;100.0
64862;BME280;62652;42.274;-71.436;2023-01-31T01:06:01;101100.0;;;4.2777777777777795;100.0
64862;BME280;62652;42.274;-71.436;2023-01-31T01:07:01;101110.0;;;4.222222222222223;100.0
64862;BME280;62652;42.274;-71.436;2023-01-31T01:08:00;101110.0;;;4.222222222222223;100.0
64862;BME280;62652;42.274;-71.436;2023-01-31T01:09:00;101100.0;;;4.222222222222223;100.0
64862;BME280;62652;42.274;-71.436;2023-01-31T01:10:01;101100.0;;;4.222222222222223;100.0
64862;BME280;62652;42.274;-71.436;2023-01-31T01:11:05;101100.0;;;4.2777777777777795;100.0
64862;BME280;62652;42.274;-71.436;2023-01-31T01:12:01;101090.0;;;4.222222222222223;100.0
64862;BME280;62652;42.274;-71.436;2023-01-31T01:13:01;101070.0;;;4.111111111111111;100.0
64862;BME280;62652;42.274;-71.436;2023-01-31T01:14:01;101070.0;;;4.222222222222223;100.0
64862;BME280;62652;42.274;-71.436;2023-01-31T01:15:01;101060.0;;;4.222222222222223;100.0
64862;BME280;62652;42.274;-71.436;2023-01-31T01:16:04;101060.0;;;4.222222222222223;100.0
64862;BME280;62652;42.274;-71.436;2023-01-31T01:17:01;101060.0;;;4.222222222222223;100.0
64862;BME280;62652;42.274;-71.436;2023-01-31T01:18:01;101060.0;;;4.222222222222223;100.0
64862;BME280;62652;42.274;-71.436;2023-01-31T01:19:02;101070.0;;;4.222222222222223;100.0
64862;BME280;62652;42.274;-71.436;2023-01-31T01:20:01;101080.0;;;4.222222222222223;100.0
64862;BME280;62652;42.274;-71.436;2023-01-31T01:21:05;101080.0;;;4.222222222222223;100.0
64862;BME280;62652;42.274;-71.436;2023-01-31T01:22:00;101090.0;;;4.222222222222223;100.0
64862;BME280;62652;42.274;-71.436;2023-01-31T01:23:01;101090.0;;;4.222222222222223;100.0
64862;BME280;62652;42.274;-71.436;2023-01-31T01:24:00;101100.0;;;4.222222222222223;100.0
64862;BME280;62652;42.274;-71.436;2023-01-31T01:25:01;101100.0;;;4.222222222222223;100.0
64862;BME280;62652;42.274;-71.436;2023-01-31T01:26:00;101100.0;;;4.222222222222223;100.0
64862;BME280;62652;42.274;-71.436;2023-01-31T01:27:00;101100.0;;;4.111111111111111;100.0
64862;BME280;62652;42.274;-71.436;2023-01-31T01:28:01;101090.0;;;4.000000000000002;100.0
64862;BME280;62652;42.274;-71.436;2023-01-31T01:29:02;101100.0;;;4.000000000000002;100.0
64862;BME280;62652;42.274;-71.436;2023-01-31T01:30:01;101090.0;;;4.111111111111111;100.0
64862;BME280;62652;42.274;-71.436;2023-01-31T01:31:04;101090.0;;;4.111111111111111;100.0
64862;BME280;62652;42.274;-71.436;2023-01-31T01:32:00;101090.0;;;4.222222222222223;100.0
64862;BME280;62652;42.274;-71.436;2023-01-31T01:33:00;101090.0;;;4.222222222222223;100.0
64862;BME280;62652;42.274;-71.436;2023-01-31T01:34:03;101090.0;;;4.222222222222223;100.0
64862;BME280;62652;42.274;-71.436;2023-01-31T01:35:00;101090.0;;;4.111111111111111;100.0
64862;BME280;62652;42.274;-71.436;2023-01-31T01:36:01;101100.0;;;4.111111111111111;100.0
64862;BME280;62652;42.274;-71.436;2023-01-31T01:37:01;101100.0;;;4.222222222222223;100.0
64862;BME280;62652;42.274;-71.436;2023-01-31T01:38:01;101100.0;;;4.222222222222223;100.0
64862;BME280;62652;42.274;-71.436;2023-01-31T01:39:02;101100.0;;;4.222222222222223;100.0
64862;BME280;62652;42.274;-71.436;2023-01-31T01:40:01;101100.0;;;4.222222222222223;100.0
64862;BME280;62652;42.274;-71.436;2023-01-31T01:41:01;101090.0;;;4.222222222222223;100.0
64862;BME280;62652;42.274;-71.436;2023-01-31T01:42:01;101090.0;;;4.222222222222223;100.0
64862;BME280;62652;42.274;-71.436;2023-01-31T01:43:01;101090.0;;;4.2777777777777795;100.0
64862;BME280;62652;42.274;-71.436;2023-01-31T01:44:02;101090.0;;;4.2777777777777795;100.0
64862;BME280;62652;42.274;-71.436;2023-01-31T01:45:02;101090.0;;;4.388888888888888;100.0
64862;BME280;62652;42.274;-71.436;2023-01-31T01:46:01;101090.0;;;4.2777777777777795;100.0
64862;BME280;62652;42.274;-71.436;2023-01-31T01:47:01;101090.0;;;4.2777777777777795;100.0
64862;BME280;62652;42.274;-71.436;2023-01-31T01:48:04;101100.0;;;4.2777777777777795;100.0
64862;BME280;62652;42.274;-71.436;2023-01-31T01:49:03;101110.0;;;4.388888888888888;100.0
64862;BME280;62652;42.274;-71.436;2023-01-31T01:50:05;101110.0;;;4.388888888888888;100.0
64862;BME280;62652;42.274;-71.436;2023-01-31T01:51:03;101110.0;;;4.500000000000001;100.0
64862;BME280;62652;42.274;-71.436;2023-01-31T01:52:04;101110.0;;;4.500000000000001;100.0
64862;BME280;62652;42.274;-71.436;2023-01-31T01:53:03;101100.0;;;4.388888888888888;100.0
64862;BME280;62652;42.274;-71.436;2023-01-31T01:54:04;101090.0;;;4.388888888888888;100.0
64862;BME280;62652;42.274;-71.436;2023-01-31T01:55:05;101090.0;;;4.388888888888888;100.0
64862;BME280;62652;42.274;-71.436;2023-01-31T01:56:02;101080.0;;;4.388888888888888;100.0
64862;BME280;62652;42.274;-71.436;2023-01-31T01:57:02;101070.0;;;4.2777777777777795;100.0
64862;BME280;62652;42.274;-71.436;2023-01-31T01:58:06;101060.0;;;4.388888888888888;100.0
64862;BME280;62652;42.274;-71.436;2023-01-31T01:59:03;101060.0;;;4.61111111111111;100.0
64862;BME280;62652;42.274;-71.436;2023-01-31T02:00:06;101060.0;;;4.500000000000001;100.0
64862;BME280;62652;42.274;-71.436;2023-01-31T02:01:03;101070.0;;;4.61111111111111;100.0
64862;BME280;62652;42.274;-71.436;2023-01-31T02:02:01;101070.0;;;4.61111111111111;100.0
64862;BME280;62652;42.274;-71.436;2023-01-31T02:03:03;101070.0;;;4.61111111111111;100.0
64862;BME280;62652;42.274;-71.436;2023-01-31T02:04:01;101070.0;;;4.722222222222222;100.0
64862;BME280;62652;42.274;-71.436;2023-01-31T02:05:02;101070.0;;;4.61111111111111;100.0
64862;BME280;62652;42.274;-71.436;2023-01-31T02:06:03;101070.0;;;4.722222222222222;100.0
64862;BME280;62652;42.274;-71.436;2023-01-31T02:07:00;101080.0;;;4.722222222222222;100.0
64862;BME280;62652;42.274;-71.436;2023-01-31T02:08:01;101080.0;;;4.777777777777779;100.0
64862;BME280;62652;42.274;-71.436;2023-01-31T02:09:02;101080.0;;;4.777777777777779;100.0
64862;BME280;62652;42.274;-71.436;2023-01-31T02:10:05;101080.0;;;4.722222222222222;100.0
64862;BME280;62652;42.274;-71.436;2023-01-31T02:11:03;101080.0;;;4.61111111111111;100.0
64862;BME280;62652;42.274;-71.436;2023-01-31T02:12:01;101080.0;;;4.722222222222222;100.0
64862;BME280;62652;42.274;-71.436;2023-01-31T02:13:01;101080.0;;;4.500000000000001;100.0
64862;BME280;62652;42.274;-71.436;2023-01-31T02:14:03;101080.0;;;4.61111111111111;100.0
64862;BME280;62652;42.274;-71.436;2023-01-31T02:15:01;101080.0;;;4.61111111111111;100.0
64862;BME280;62652;42.274;-71.436;2023-01-31T02:16:00;101090.0;;;4.722222222222222;100.0
64862;BME280;62652;42.274;-71.436;2023-01-31T02:17:00;101090.0;;;4.722222222222222;100.0
64862;BME280;62652;42.274;-71.436;2023-01-31T02:18:01;101080.0;;;4.722222222222222;100.0
64862;BME280;62652;42.274;-71.436;2023-01-31T02:19:00;101080.0;;;4.722222222222222;100.0
64862;BME280;62652;42.274;-71.436;2023-01-31T02:20:13;101080.0;;;4.722222222222222;100.0
64862;BME280;62652;42.274;-71.436;2023-01-31T02:22:12;101080.0;;;4.61111111111111;100.0
64862;BME280;62652;42.274;-71.436;2023-01-31T02:23:15;101080.0;;;4.61111111111111;100.0
64862;BME280;62652;42.274;-71.436;2023-01-31T02:24:16;101080.0;;;4.722222222222222;100.0
64862;BME280;62652;42.274;-71.436;2023-01-31T02:25:17;101080.0;;;4.722222222222222;100.0
64862;BME280;62652;42.274;-71.436;2023-01-31T02:27:15;101080.0;;;4.722222222222222;100.0
64862;BME280;62652;42.274;-71.436;2023-01-31T02:28:13;101080.0;;;4.722222222222222;100.0
64862;BME280;62652;42.274;-71.436;2023-01-31T02:29:15;101070.0;;;4.722222222222222;100.0
64862;BME280;62652;42.274;-71.436;2023-01-31T02:30:16;101070.0;;;4.777777777777779;100.0
64862;BME280;62652;42.274;-71.436;2023-01-31T02:31:19;101070.0;;;4.8888888888888875;100.0
64862;BME280;62652;42.274;-71.436;2023-01-31T02:32:18;101070.0;;;4.8888888888888875;100.0
64862;BME280;62652;42.274;-71.436;2023-01-31T02:33:04;101070.0;;;5.0;100.0
64862;BME280;62652;42.274;-71.436;2023-01-31T02:34:09;101070.0;;;5.0;100.0
64862;BME280;62652;42.274;-71.436;2023-01-31T02:35:09;101080.0;;;4.8888888888888875;100.0
64862;BME280;62652;42.274;-71.436;2023-01-31T02:36:10;101080.0;;;4.8888888888888875;100.0
64862;BME280;62652;42.274;-71.436;2023-01-31T02:37:12;101080.0;;;4.777777777777779;100.0
64862;BME280;62652;42.274;-71.436;2023-01-31T02:38:08;101090.0;;;4.8888888888888875;100.0
64862;BME280;62652;42.274;-71.436;2023-01-31T02:39:07;101090.0;;;4.8888888888888875;100.0
64862;BME280;62652;42.274;-71.436;2023-01-31T02:40:08;101090.0;;;5.0;100.0
64862;BME280;62652;42.274;-71.436;2023-01-31T02:41:07;101090.0;;;5.0;100.0
64862;BME280;62652;42.274;-71.436;2023-01-31T02:42:09;101090.0;;;4.8888888888888875;100.0
64862;BME280;62652;42.274;-71.436;2023-01-31T02:43:06;101090.0;;;4.8888888888888875;100.0
64862;BME280;62652;42.274;-71.436;2023-01-31T02:44:07;101090.0;;;4.8888888888888875;100.0
64862;BME280;62652;42.274;-71.436;2023-01-31T02:45:07;101090.0;;;4.8888888888888875;100.0
64862;BME280;62652;42.274;-71.436;2023-01-31T02:46:08;101090.0;;;4.8888888888888875;100.0
64862;BME280;62652;42.274;-71.436;2023-01-31T02:47:05;101090.0;;;4.777777777777779;100.0
64862;BME280;62652;42.274;-71.436;2023-01-31T02:48:07;101080.0;;;4.777777777777779;100.0
64862;BME280;62652;42.274;-71.436;2023-01-31T02:49:07;101080.0;;;4.777777777777779;100.0
64862;BME280;62652;42.274;-71.436;2023-01-31T02:50:05;101070.0;;;4.8888888888888875;100.0
64862;BME280;62652;42.274;-71.436;2023-01-31T02:51:04;101060.0;;;4.8888888888888875;100.0
64862;BME280;62652;42.274;-71.436;2023-01-31T02:52:09;101060.0;;;5.0;100.0
64862;BME280;62652;42.274;-71.436;2023-01-31T02:53:05;101060.0;;;5.0;100.0
64862;BME280;62652;42.274;-71.436;2023-01-31T02:54:05;101050.0;;;5.0;100.0
64862;BME280;62652;42.274;-71.436;2023-01-31T02:55:06;101040.0;;;5.0;100.0
64862;BME280;62652;42.274;-71.436;2023-01-31T02:56:05;101050.0;;;5.0;100.0
64862;BME280;62652;42.274;-71.436;2023-01-31T02:57:01;101060.0;;;5.0;100.0
64862;BME280;62652;42.274;-71.436;2023-01-31T02:58:02;101070.0;;;4.8888888888888875;100.0
64862;BME280;62652;42.274;-71.436;2023-01-31T02:59:04;101070.0;;;5.0;100.0
64862;BME280;62652;42.274;-71.436;2023-01-31T03:00:00;101080.0;;;5.0;100.0
64862;BME280;62652;42.274;-71.436;2023-01-31T03:01:03;101080.0;;;5.1111111111111125;100.0
64862;BME280;62652;42.274;-71.436;2023-01-31T03:02:02;101080.0;;;5.1111111111111125;100.0
64862;BME280;62652;42.274;-71.436;2023-01-31T03:03:04;101070.0;;;5.1111111111111125;100.0
64862;BME280;62652;42.274;-71.436;2023-01-31T03:04:03;101070.0;;;5.1111111111111125;100.0
64862;BME280;62652;42.274;-71.436;2023-01-31T03:05:00;101070.0;;;5.1111111111111125;100.0
64862;BME280;62652;42.274;-71.436;2023-01-31T03:07:03;101050.0;;;5.1111111111111125;100.0
64862;BME280;62652;42.274;-71.436;2023-01-31T03:08:03;101060.0;;;5.0;100.0
64862;BME280;62652;42.274;-71.436;2023-01-31T03:09:03;101050.0;;;5.0;100.0
64862;BME280;62652;42.274;-71.436;2023-01-31T03:10:12;101050.0;;;4.8888888888888875;100.0
64862;BME280;62652;42.274;-71.436;2023-01-31T03:11:03;101050.0;;;5.0;100.0
64862;BME280;62652;42.274;-71.436;2023-01-31T03:12:07;101050.0;;;4.8888888888888875;100.0
64862;BME280;62652;42.274;-71.436;2023-01-31T03:13:10;101040.0;;;5.0;100.0
64862;BME280;62652;42.274;-71.436;2023-01-31T03:14:07;101030.0;;;5.0;100.0
64862;BME280;62652;42.274;-71.436;2023-01-31T03:15:09;101040.0;;;4.8888888888888875;100.0
64862;BME280;62652;42.274;-71.436;2023-01-31T03:16:05;101040.0;;;4.8888888888888875;100.0
64862;BME280;62652;42.274;-71.436;2023-01-31T03:17:05;101040.0;;;5.0;100.0
64862;BME280;62652;42.274;-71.436;2023-01-31T03:18:05;101050.0;;;5.222222222222221;100.0
64862;BME280;62652;42.274;-71.436;2023-01-31T03:19:05;101050.0;;;5.277777777777778;100.0
64862;BME280;62652;42.274;-71.436;2023-01-31T03:20:05;101050.0;;;5.222222222222221;100.0
64862;BME280;62652;42.274;-71.436;2023-01-31T03:21:04;101050.0;;;5.277777777777778;100.0
64862;BME280;62652;42.274;-71.436;2023-01-31T03:22:05;101050.0;;;5.222222222222221;100.0
64862;BME280;62652;42.274;-71.436;2023-01-31T03:23:04;101040.0;;;5.222222222222221;100.0
64862;BME280;62652;42.274;-71.436;2023-01-31T03:24:02;101050.0;;;5.0;100.0
64862;BME280;62652;42.274;-71.436;2023-01-31T03:25:03;101050.0;;;5.0;100.0
64862;BME280;62652;42.274;-71.436;2023-01-31T03:26:02;101050.0;;;5.1111111111111125;100.0
64862;BME280;62652;42.274;-71.436;2023-01-31T03:27:01;101050.0;;;5.222222222222221;100.0
64862;BME280;62652;42.274;-71.436;2023-01-31T03:28:02;101060.0;;;5.222222222222221;100.0
64862;BME280;62652;42.274;-71.436;2023-01-31T03:29:02;101060.0;;;5.222222222222221;100.0
64862;BME280;62652;42.274;-71.436;2023-01-31T03:30:07;101060.0;;;5.222222222222221;100.0
64862;BME280;62652;42.274;-71.436;2023-01-31T03:31:04;101070.0;;;5.222222222222221;100.0
64862;BME280;62652;42.274;-71.436;2023-01-31T03:32:05;101070.0;;;5.222222222222221;100.0
64862;BME280;62652;42.274;-71.436;2023-01-31T03:33:07;101070.0;;;5.222222222222221;100.0
64862;BME280;62652;42.274;-71.436;2023-01-31T03:34:02;101080.0;;;5.222222222222221;100.0
64862;BME280;62652;42.274;-71.436;2023-01-31T03:35:01;101070.0;;;5.222222222222221;100.0
64862;BME280;62652;42.274;-71.436;2023-01-31T03:36:06;101070.0;;;5.222222222222221;100.0
64862;BME280;62652;42.274;-71.436;2023-01-31T03:37:07;101070.0;;;5.1111111111111125;100.0
64862;BME280;62652;42.274;-71.436;2023-01-31T03:38:06;101070.0;;;5.1111111111111125;100.0
64862;BME280;62652;42.274;-71.436;2023-01-31T03:39:08;101060.0;;;5.1111111111111125;100.0
64862;BME280;62652;42.274;-71.436;2023-01-31T03:40:04;101060.0;;;5.222222222222221;100.0
64862;BME280;62652;42.274;-71.436;2023-01-31T03:41:07;101060.0;;;5.222222222222221;100.0
64862;BME280;62652;42.274;-71.436;2023-01-31T03:42:03;101060.0;;;5.222222222222221;100.0
64862;BME280;62652;42.274;-71.436;2023-01-31T03:43:06;101050.0;;;5.222222222222221;100.0
64862;BME280;62652;42.274;-71.436;2023-01-31T03:44:05;101050.0;;;5.222222222222221;100.0
64862;BME280;62652;42.274;-71.436;2023-01-31T03:45:04;101060.0;;;5.222222222222221;100.0
64862;BME280;62652;42.274;-71.436;2023-01-31T03:46:04;101060.0;;;5.277777777777778;100.0
64862;BME280;62652;42.274;-71.436;2023-01-31T03:47:04;101060.0;;;5.277777777777778;100.0
64862;BME280;62652;42.274;-71.436;2023-01-31T03:48:01;101060.0;;;5.38888888888889;100.0
64862;BME280;62652;42.274;-71.436;2023-01-31T03:49:04;101060.0;;;5.499999999999999;100.0
64862;BME280;62652;42.274;-71.436;2023-01-31T03:50:03;101060.0;;;5.611111111111112;100.0
64862;BME280;62652;42.274;-71.436;2023-01-31T03:51:05;101060.0;;;5.611111111111112;100.0
64862;BME280;62652;42.274;-71.436;2023-01-31T03:52:05;101060.0;;;5.7222222222222205;100.0
64862;BME280;62652;42.274;-71.436;2023-01-31T03:53:06;101060.0;;;5.777777777777777;100.0
64862;BME280;62652;42.274;-71.436;2023-01-31T03:54:04;101050.0;;;5.777777777777777;100.0
64862;BME280;62652;42.274;-71.436;2023-01-31T03:55:03;101050.0;;;5.777777777777777;100.0
64862;BME280;62652;42.274;-71.436;2023-01-31T03:56:04;101050.0;;;5.777777777777777;100.0
64862;BME280;62652;42.274;-71.436;2023-01-31T03:57:03;101040.0;;;5.777777777777777;100.0
64862;BME280;62652;42.274;-71.436;2023-01-31T03:58:02;101040.0;;;5.777777777777777;100.0
64862;BME280;62652;42.274;-71.436;2023-01-31T03:59:07;101050.0;;;5.777777777777777;100.0
64862;BME280;62652;42.274;-71.436;2023-01-31T04:00:06;101050.0;;;5.7222222222222205;100.0
64862;BME280;62652;42.274;-71.436;2023-01-31T04:01:02;101050.0;;;5.7222222222222205;100.0
64862;BME280;62652;42.274;-71.436;2023-01-31T04:02:03;101050.0;;;5.777777777777777;100.0
64862;BME280;62652;42.274;-71.436;2023-01-31T04:03:06;101050.0;;;5.777777777777777;100.0
64862;BME280;62652;42.274;-71.436;2023-01-31T04:04:07;101050.0;;;5.888888888888889;100.0
64862;BME280;62652;42.274;-71.436;2023-01-31T04:05:04;101050.0;;;5.777777777777777;100.0
64862;BME280;62652;42.274;-71.436;2023-01-31T04:06:01;101050.0;;;5.999999999999998;100.0
64862;BME280;62652;42.274;-71.436;2023-01-31T04:07:00;101050.0;;;5.888888888888889;100.0
64862;BME280;62652;42.274;-71.436;2023-01-31T04:08:01;101050.0;;;5.888888888888889;100.0
64862;BME280;62652;42.274;-71.436;2023-01-31T04:09:01;101050.0;;;5.888888888888889;100.0
64862;BME280;62652;42.274;-71.436;2023-01-31T04:10:01;101070.0;;;5.777777777777777;100.0
64862;BME280;62652;42.274;-71.436;2023-01-31T04:11:03;101070.0;;;5.777777777777777;100.0
64862;BME280;62652;42.274;-71.436;2023-01-31T04:12:01;101080.0;;;5.777777777777777;100.0
64862;BME280;62652;42.274;-71.436;2023-01-31T04:13:00;101090.0;;;5.888888888888889;100.0
64862;BME280;62652;42.274;-71.436;2023-01-31T04:14:01;101090.0;;;5.777777777777777;100.0
64862;BME280;62652;42.274;-71.436;2023-01-31T04:15:00;101090.0;;;5.777777777777777;100.0
64862;BME280;62652;42.274;-71.436;2023-01-31T04:16:01;101090.0;;;5.777777777777777;100.0
64862;BME280;62652;42.274;-71.436;2023-01-31T04:17:00;101090.0;;;5.777777777777777;100.0
64862;BME280;62652;42.274;-71.436;2023-01-31T04:18:01;101090.0;;;5.777777777777777;100.0
64862;BME280;62652;42.274;-71.436;2023-01-31T04:19:00;101090.0;;;5.888888888888889;100.0
64862;BME280;62652;42.274;-71.436;2023-01-31T04:20:01;101100.0;;;5.888888888888889;100.0
64862;BME280;62652;42.274;-71.436;2023-01-31T04:21:00;101100.0;;;5.888888888888889;100.0
64862;BME280;62652;42.274;-71.436;2023-01-31T04:22:01;101100.0;;;5.888888888888889;100.0
64862;BME280;62652;42.274;-71.436;2023-01-31T04:23:02;101090.0;;;5.888888888888889;100.0
64862;BME280;62652;42.274;-71.436;2023-01-31T04:24:01;101090.0;;;5.999999999999998;100.0
64862;BME280;62652;42.274;-71.436;2023-01-31T04:25:00;101090.0;;;5.999999999999998;100.0
64862;BME280;62652;42.274;-71.436;2023-01-31T04:26:01;101090.0;;;5.888888888888889;100.0
64862;BME280;62652;42.274;-71.436;2023-01-31T04:27:01;101080.0;;;5.888888888888889;100.0
64862;BME280;62652;42.274;-71.436;2023-01-31T04:28:00;101080.0;;;5.888888888888889;100.0
64862;BME280;62652;42.274;-71.436;2023-01-31T04:29:01;101080.0;;;5.888888888888889;100.0
64862;BME280;62652;42.274;-71.436;2023-01-31T04:30:00;101090.0;;;5.888888888888889;100.0
64862;BME280;62652;42.274;-71.436;2023-01-31T04:31:00;101100.0;;;5.888888888888889;100.0
64862;BME280;62652;42.274;-71.436;2023-01-31T04:32:01;101090.0;;;5.999999999999998;100.0
64862;BME280;62652;42.274;-71.436;2023-01-31T04:33:01;101090.0;;;5.999999999999998;100.0